Time;durP1;ratioP1;P1;durP2;ratioP2;P2;SDS_P1;SDS_P2;PMS_P1;PMS_P2;Temp;Humidity;BMP_temperature;BMP_pressure;BME280_temperature;BME280_humidity;BME280_pressure;Samples;Min_cycle;Max_cycle;Signal;HPM_P1;HPM_P2
2023/06/13 00:01:03;;;;;;;13.35;4.25;;;18.30;62.40;;;;;;4978898;28;20074;-73
2023/06/13 00:03:29;;;;;;;10.50;4.63;;;18.30;62.50;;;;;;4916773;28;210141;-74
2023/06/13 00:05:56;;;;;;;14.20;4.82;;;18.20;62.70;;;;;;4995804;28;20054;-72
2023/06/13 00:08:24;;;;;;;9.93;4.78;;;18.20;62.60;;;;;;4930271;28;212968;-72
2023/06/13 00:10:53;;;;;;;11.45;4.60;;;18.20;62.80;;;;;;5003211;28;20074;-72
2023/06/13 00:13:19;;;;;;;11.65;4.68;;;18.20;63.20;;;;;;4946807;28;207592;-73
2023/06/13 00:15:56;;;;;;;14.18;4.90;;;18.10;63.10;;;;;;4983555;28;20062;-72
2023/06/13 00:18:23;;;;;;;11.70;4.57;;;18.10;63.10;;;;;;4907964;28;212776;-73
2023/06/13 00:20:52;;;;;;;9.13;4.53;;;18.10;63.30;;;;;;4983439;28;20437;-72
2023/06/13 00:23:18;;;;;;;11.65;4.60;;;18.00;63.50;;;;;;4915545;28;207507;-72
2023/06/13 00:25:44;;;;;;;13.63;4.70;;;18.10;63.60;;;;;;4963613;28;20077;-74
2023/06/13 00:28:10;;;;;;;13.13;4.65;;;18.00;63.70;;;;;;4958182;28;208688;-72
2023/06/13 00:30:36;;;;;;;12.10;4.80;;;18.00;63.90;;;;;;4950653;28;20062;-74
2023/06/13 00:33:04;;;;;;;11.02;4.50;;;17.90;63.90;;;;;;4966665;28;20526;-74
2023/06/13 00:35:31;;;;;;;11.15;4.32;;;17.90;64.00;;;;;;4941228;28;226976;-74
2023/06/13 00:37:57;;;;;;;11.85;4.57;;;17.80;64.10;;;;;;4963805;28;20058;-74
2023/06/13 00:40:24;;;;;;;15.25;4.57;;;17.80;64.50;;;;;;4953914;28;205613;-75
2023/06/13 00:42:52;;;;;;;11.73;4.60;;;17.80;64.50;;;;;;5001026;28;20050;-74
2023/06/13 00:45:26;;;;;;;11.73;4.68;;;17.80;64.50;;;;;;4944245;28;206427;-73
2023/06/13 00:47:59;;;;;;;13.55;4.45;;;17.80;64.70;;;;;;4958154;28;20066;-74
2023/06/13 00:50:28;;;;;;;18.58;4.75;;;17.70;64.70;;;;;;4911998;28;206790;-73
2023/06/13 00:52:56;;;;;;;9.68;4.57;;;17.70;64.60;;;;;;4961776;28;20066;-73
2023/06/13 00:55:25;;;;;;;13.13;4.50;;;17.70;64.80;;;;;;4924445;28;206686;-74
2023/06/13 00:57:55;;;;;;;11.23;4.13;;;17.60;65.20;;;;;;4960617;28;20756;-73
2023/06/13 01:00:25;;;;;;;15.23;4.75;;;17.60;65.00;;;;;;4924017;28;208130;-74
2023/06/13 01:02:57;;;;;;;14.45;4.68;;;17.60;65.20;;;;;;4962973;28;20466;-74
2023/06/13 01:05:25;;;;;;;12.82;4.60;;;17.50;65.30;;;;;;4904109;28;210202;-74
2023/06/13 01:07:53;;;;;;;10.30;4.35;;;17.50;65.50;;;;;;4981121;28;20042;-73
2023/06/13 01:10:20;;;;;;;9.65;4.38;;;17.50;65.70;;;;;;4924459;28;224543;-74
2023/06/13 01:13:09;;;;;;;12.02;4.70;;;17.40;65.70;;;;;;4964930;28;20059;-74
2023/06/13 01:15:47;;;;;;;10.95;4.68;;;17.40;66.10;;;;;;4919084;28;68672;-74
2023/06/13 01:18:17;;;;;;;12.00;4.60;;;17.30;66.00;;;;;;4944644;28;211541;-73
2023/06/13 01:20:44;;;;;;;10.68;4.63;;;17.20;66.10;;;;;;4992182;28;20522;-74
2023/06/13 01:23:43;;;;;;;10.45;4.50;;;17.20;66.40;;;;;;4962986;28;206887;-73
2023/06/13 01:26:41;;;;;;;12.25;4.45;;;17.20;66.40;;;;;;4943538;28;204802;-74
2023/06/13 01:29:08;;;;;;;12.00;4.40;;;17.20;67.00;;;;;;4930135;28;205546;-73
2023/06/13 01:31:36;;;;;;;11.68;4.53;;;17.10;66.40;;;;;;4988651;28;20058;-73
2023/06/13 01:34:03;;;;;;;12.75;4.72;;;17.10;66.70;;;;;;4934524;28;205854;-73
2023/06/13 01:36:29;;;;;;;15.10;5.13;;;17.00;66.90;;;;;;4997762;28;20061;-73
2023/06/13 01:38:56;;;;;;;13.43;4.70;;;17.00;67.10;;;;;;4941951;28;207161;-74
2023/06/13 01:41:22;;;;;;;10.90;4.80;;;17.00;67.10;;;;;;5001622;28;20054;-73
2023/06/13 01:43:48;;;;;;;15.52;4.85;;;16.90;67.20;;;;;;4934683;28;206083;-74
2023/06/13 01:46:27;;;;;;;14.25;4.50;;;16.90;67.40;;;;;;4991440;28;20062;-74
2023/06/13 01:49:12;;;;;;;15.38;5.03;;;16.80;67.40;;;;;;4932896;28;210149;-73
2023/06/13 01:51:50;;;;;;;14.13;4.65;;;16.80;68.10;;;;;;4995563;28;20046;-74
2023/06/13 01:54:21;;;;;;;14.30;4.70;;;16.70;68.20;;;;;;4913256;28;219506;-73
2023/06/13 01:56:52;;;;;;;11.48;5.00;;;16.70;67.80;;;;;;4987309;28;20109;-73
2023/06/13 01:59:22;;;;;;;13.23;4.88;;;16.70;68.30;;;;;;4932043;28;207511;-74
2023/06/13 02:01:49;;;;;;;14.80;4.63;;;16.60;68.20;;;;;;4988437;28;20507;-73
2023/06/13 02:04:15;;;;;;;9.82;4.90;;;16.60;68.40;;;;;;4949988;28;213179;-73
2023/06/13 02:06:41;;;;;;;12.23;4.78;;;16.50;68.50;;;;;;4997284;28;20069;-73
2023/06/13 02:09:07;;;;;;;12.07;5.50;;;16.50;68.70;;;;;;4926124;28;217718;-73
2023/06/13 02:11:33;;;;;;;10.82;4.95;;;16.50;68.80;;;;;;4980295;28;20066;-73
2023/06/13 02:13:59;;;;;;;13.68;4.50;;;16.50;69.00;;;;;;4921200;28;211571;-74
2023/06/13 02:16:29;;;;;;;9.82;4.72;;;16.40;69.10;;;;;;4984507;28;20556;-73
2023/06/13 02:18:55;;;;;;;12.45;4.82;;;16.40;69.30;;;;;;4938190;28;207942;-73
2023/06/13 02:21:22;;;;;;;13.90;4.93;;;16.30;69.50;;;;;;5002280;28;20065;-73
2023/06/13 02:23:48;;;;;;;12.93;4.90;;;16.30;69.80;;;;;;4939019;28;213542;-73
2023/06/13 02:26:14;;;;;;;11.98;4.90;;;16.30;69.80;;;;;;5004501;28;20168;-73
2023/06/13 02:28:40;;;;;;;12.90;5.20;;;16.20;69.80;;;;;;4938489;28;207660;-73
2023/06/13 02:31:06;;;;;;;12.63;5.10;;;16.20;70.10;;;;;;4988041;28;20058;-73
2023/06/13 02:33:32;;;;;;;12.48;5.28;;;16.20;70.10;;;;;;4912325;28;212879;-74
2023/06/13 02:35:58;;;;;;;10.90;5.25;;;16.10;70.00;;;;;;5006597;28;20043;-73
2023/06/13 02:38:24;;;;;;;14.43;5.18;;;16.10;70.60;;;;;;4930057;28;208819;-73
2023/06/13 02:40:50;;;;;;;13.20;5.18;;;16.10;70.40;;;;;;4998564;28;20058;-73
2023/06/13 02:43:17;;;;;;;11.63;5.28;;;16.10;70.70;;;;;;4935057;28;209543;-73
2023/06/13 02:45:43;;;;;;;12.02;5.22;;;16.00;70.90;;;;;;4992157;28;20416;-73
2023/06/13 02:48:09;;;;;;;11.25;5.38;;;16.00;71.30;;;;;;4964163;28;206939;-73
2023/06/13 02:50:35;;;;;;;11.20;4.80;;;15.90;71.40;;;;;;4957036;28;168628;-73
2023/06/13 02:53:01;;;;;;;10.85;4.85;;;15.90;71.40;;;;;;4978421;28;20539;-73
2023/06/13 02:55:28;;;;;;;10.15;4.93;;;15.90;71.70;;;;;;4944466;28;214814;-73
2023/06/13 02:57:55;;;;;;;13.57;5.00;;;15.80;71.80;;;;;;4980762;28;20572;-74
2023/06/13 03:00:22;;;;;;;11.43;4.90;;;15.80;72.10;;;;;;4951140;28;215752;-73
2023/06/13 03:02:48;;;;;;;11.85;4.88;;;15.70;72.30;;;;;;4982712;28;20409;-73
2023/06/13 03:05:15;;;;;;;14.93;5.30;;;15.70;73.10;;;;;;4954807;28;242790;-73
2023/06/13 03:07:48;;;;;;;9.60;5.03;;;15.70;72.80;;;;;;4983705;28;20050;-73
2023/06/13 03:10:15;;;;;;;12.18;4.90;;;15.60;73.20;;;;;;4950645;28;209332;-73
2023/06/13 03:12:42;;;;;;;14.85;5.47;;;15.60;73.30;;;;;;4965234;28;20496;-73
2023/06/13 03:15:08;;;;;;;13.55;5.00;;;15.60;73.60;;;;;;4926660;28;208128;-73
2023/06/13 03:17:34;;;;;;;11.13;5.10;;;15.60;73.90;;;;;;4967547;28;20087;-73
2023/06/13 03:20:01;;;;;;;11.55;5.10;;;15.60;74.00;;;;;;4939540;28;206994;-73
2023/06/13 03:22:27;;;;;;;13.15;5.15;;;15.50;74.20;;;;;;4963838;28;20055;-73
2023/06/13 03:24:53;;;;;;;10.40;4.80;;;15.50;74.40;;;;;;4914175;28;211846;-73
2023/06/13 03:27:19;;;;;;;15.05;5.00;;;15.50;74.30;;;;;;4966477;28;20135;-73
2023/06/13 03:29:46;;;;;;;15.48;5.50;;;15.40;74.40;;;;;;4929949;28;209897;-73
2023/06/13 03:32:12;;;;;;;14.88;5.47;;;15.50;74.80;;;;;;4971399;28;20066;-73
2023/06/13 03:34:39;;;;;;;13.02;5.22;;;15.40;75.00;;;;;;4926399;28;209232;-73
2023/06/13 03:37:07;;;;;;;10.05;5.03;;;15.40;75.10;;;;;;4968717;28;20054;-73
2023/06/13 03:39:34;;;;;;;12.13;4.70;;;15.40;75.20;;;;;;4921685;28;210186;-74
2023/06/13 03:42:01;;;;;;;12.95;5.50;;;15.40;75.20;;;;;;4970511;28;20042;-73
2023/06/13 03:44:28;;;;;;;10.43;5.00;;;15.40;75.40;;;;;;4942385;28;122874;-74
2023/06/13 03:46:55;;;;;;;15.05;5.28;;;15.40;75.50;;;;;;4962554;28;20050;-73
2023/06/13 03:49:23;;;;;;;13.35;4.93;;;15.40;76.10;;;;;;4930585;28;206354;-73
2023/06/13 03:51:49;;;;;;;13.20;5.35;;;15.40;75.80;;;;;;4987279;28;20065;-74
2023/06/13 03:54:15;;;;;;;12.25;4.95;;;15.40;76.00;;;;;;4915870;28;211439;-73
2023/06/13 03:56:42;;;;;;;11.63;5.10;;;15.50;75.90;;;;;;5002900;28;20065;-73
2023/06/13 03:59:08;;;;;;;13.90;5.45;;;15.50;76.00;;;;;;4927523;28;207617;-73
2023/06/13 04:01:34;;;;;;;15.15;5.30;;;15.50;76.10;;;;;;4981256;28;20050;-73
2023/06/13 04:04:00;;;;;;;13.25;5.07;;;15.60;76.10;;;;;;4924926;28;207778;-74
2023/06/13 04:06:28;;;;;;;12.05;5.13;;;15.60;76.30;;;;;;4979463;28;20062;-74
2023/06/13 04:08:57;;;;;;;11.82;4.90;;;15.70;76.30;;;;;;4933536;28;122591;-74
2023/06/13 04:11:23;;;;;;;12.55;4.93;;;15.70;76.60;;;;;;4970732;28;21486;-74
2023/06/13 04:13:49;;;;;;;11.98;4.97;;;15.70;76.30;;;;;;4916957;28;209639;-73
2023/06/13 04:16:17;;;;;;;11.35;4.93;;;15.80;76.30;;;;;;4959317;28;20050;-74
2023/06/13 04:18:44;;;;;;;14.63;5.03;;;15.80;76.30;;;;;;4916666;28;207590;-73
2023/06/13 04:21:10;;;;;;;14.32;5.25;;;15.90;76.50;;;;;;5000571;28;20432;-73
2023/06/13 04:23:36;;;;;;;12.68;5.30;;;15.90;76.30;;;;;;4919332;28;209550;-73
2023/06/13 04:26:03;;;;;;;13.90;5.25;;;16.00;76.50;;;;;;4989670;28;20055;-73
2023/06/13 04:28:33;;;;;;;11.70;4.70;;;16.00;76.40;;;;;;4917755;28;208260;-73
2023/06/13 04:31:00;;;;;;;10.15;5.07;;;16.10;76.60;;;;;;4977489;28;20820;-73
2023/06/13 04:33:26;;;;;;;12.30;5.05;;;16.10;76.40;;;;;;4920706;28;206367;-72
2023/06/13 04:35:54;;;;;;;12.88;4.93;;;16.20;76.40;;;;;;4996438;28;20058;-74
2023/06/13 04:38:21;;;;;;;11.95;4.90;;;16.20;76.30;;;;;;4929347;28;209210;-74
2023/06/13 04:40:48;;;;;;;10.95;5.00;;;16.30;76.30;;;;;;4984303;28;20050;-73
2023/06/13 04:43:17;;;;;;;16.13;5.65;;;16.30;76.20;;;;;;4927830;28;207608;-72
2023/06/13 04:45:44;;;;;;;12.38;4.93;;;16.40;76.20;;;;;;4991943;28;20054;-73
2023/06/13 04:48:11;;;;;;;10.85;5.30;;;16.40;76.20;;;;;;4947826;28;210843;-72
2023/06/13 04:50:40;;;;;;;13.02;5.35;;;16.50;76.00;;;;;;4962944;28;20050;-73
2023/06/13 04:53:11;;;;;;;10.90;4.95;;;16.50;75.90;;;;;;4979498;28;203826;-72
2023/06/13 04:55:38;;;;;;;10.20;4.78;;;16.60;76.00;;;;;;4926927;28;20061;-73
2023/06/13 04:58:05;;;;;;;12.18;4.47;;;16.60;75.60;;;;;;4982504;28;20051;-72
2023/06/13 05:00:31;;;;;;;12.43;5.28;;;16.70;75.60;;;;;;4914019;28;206509;-73
2023/06/13 05:03:00;;;;;;;12.32;5.13;;;16.70;75.50;;;;;;4986082;28;20050;-73
2023/06/13 05:05:27;;;;;;;13.98;5.30;;;16.80;75.40;;;;;;4950878;28;247500;-73
2023/06/13 05:07:55;;;;;;;12.82;4.82;;;16.90;75.20;;;;;;4982512;28;20058;-72
2023/06/13 05:10:26;;;;;;;13.52;5.63;;;17.00;75.00;;;;;;4955779;28;207496;-73
2023/06/13 05:12:53;;;;;;;11.02;4.80;;;17.00;74.90;;;;;;4981652;28;20073;-73
2023/06/13 05:15:23;;;;;;;10.20;4.90;;;17.10;74.70;;;;;;4955307;28;208415;-74
2023/06/13 05:17:52;;;;;;;11.35;4.82;;;17.20;74.50;;;;;;4981512;28;20077;-74
2023/06/13 05:20:22;;;;;;;12.02;4.82;;;17.20;74.20;;;;;;4967096;28;208062;-74
2023/06/13 05:22:53;;;;;;;10.90;5.00;;;17.30;74.20;;;;;;4981486;28;20054;-74
2023/06/13 05:25:22;;;;;;;12.70;5.30;;;17.40;73.90;;;;;;4940767;28;203425;-66
2023/06/13 05:27:48;;;;;;;11.43;4.97;;;17.50;73.70;;;;;;4985926;28;20520;-74
2023/06/13 05:30:15;;;;;;;12.73;4.88;;;17.60;73.50;;;;;;4942240;28;208625;-68
2023/06/13 05:32:41;;;;;;;12.88;4.85;;;17.70;73.40;;;;;;4982742;28;20548;-71
2023/06/13 05:35:08;;;;;;;14.35;4.88;;;17.90;73.00;;;;;;4950097;28;209844;-72
2023/06/13 05:37:38;;;;;;;11.75;4.65;;;18.00;72.80;;;;;;4946220;28;20054;-72
2023/06/13 05:40:05;;;;;;;11.48;5.18;;;18.10;72.30;;;;;;4925599;28;205474;-71
2023/06/13 05:42:34;;;;;;;11.90;5.00;;;18.20;72.20;;;;;;4961825;28;20061;-72
2023/06/13 05:45:05;;;;;;;13.23;4.88;;;18.30;71.80;;;;;;4907262;28;229203;-72
2023/06/13 05:47:31;;;;;;;11.13;4.63;;;18.50;71.60;;;;;;4963425;28;20574;-72
2023/06/13 05:49:58;;;;;;;10.27;4.55;;;18.60;71.60;;;;;;4931170;28;211739;-72
2023/06/13 05:52:25;;;;;;;12.68;4.80;;;18.80;71.10;;;;;;4966949;28;20054;-72
2023/06/13 05:54:51;;;;;;;11.70;5.00;;;19.00;71.00;;;;;;4928587;28;216432;-72
2023/06/13 05:57:17;;;;;;;13.73;4.78;;;19.10;70.00;;;;;;4962101;28;20073;-72
2023/06/13 05:59:43;;;;;;;10.23;5.10;;;19.30;70.00;;;;;;4934078;28;213784;-71
2023/06/13 06:02:11;;;;;;;15.90;4.65;;;19.40;69.50;;;;;;4986411;28;20512;-69
2023/06/13 06:04:37;;;;;;;11.30;4.82;;;19.50;68.40;;;;;;4928957;28;212387;-69
2023/06/13 06:07:04;;;;;;;10.40;4.43;;;19.70;69.20;;;;;;4958937;28;20063;-70
2023/06/13 06:09:31;;;;;;;10.90;4.70;;;19.90;68.50;;;;;;4937934;28;227922;-70
2023/06/13 06:11:57;;;;;;;13.85;4.20;;;20.10;67.20;;;;;;4984736;28;20045;-69
2023/06/13 06:14:23;;;;;;;10.65;4.18;;;20.20;67.10;;;;;;4938463;28;213079;-72
2023/06/13 06:16:50;;;;;;;11.40;4.30;;;20.30;65.60;;;;;;4974337;28;21795;-70
2023/06/13 06:19:17;;;;;;;9.95;4.22;;;20.50;65.40;;;;;;4919145;28;212900;-70
2023/06/13 06:21:43;;;;;;;15.40;3.75;;;20.70;64.20;;;;;;4966376;28;20560;-70
2023/06/13 06:24:09;;;;;;;11.63;4.38;;;20.80;63.30;;;;;;4914362;28;211566;-69
2023/06/13 06:26:35;;;;;;;9.35;4.18;;;20.90;64.20;;;;;;4966973;28;20073;-69
2023/06/13 06:29:01;;;;;;;11.35;4.20;;;21.00;62.70;;;;;;4922914;28;209762;-69
2023/06/13 06:31:27;;;;;;;9.20;3.70;;;21.20;63.40;;;;;;4976822;28;20710;-70
2023/06/13 06:33:53;;;;;;;11.15;3.78;;;21.40;63.30;;;;;;4923863;28;221017;-69
2023/06/13 06:36:23;;;;;;;8.18;3.30;;;21.60;63.10;;;;;;4980446;28;20476;-69
2023/06/13 06:38:50;;;;;;;9.40;3.50;;;21.70;61.40;;;;;;4927309;28;211599;-70
2023/06/13 06:41:16;;;;;;;13.23;3.72;;;21.80;60.70;;;;;;4994072;28;20046;-69
2023/06/13 06:43:42;;;;;;;11.73;3.65;;;21.90;61.80;;;;;;4930707;28;213189;-69
2023/06/13 06:46:09;;;;;;;11.45;3.40;;;22.10;61.30;;;;;;4953722;28;20055;-69
2023/06/13 06:48:35;;;;;;;9.10;3.20;;;22.30;61.50;;;;;;4913869;28;217883;-71
2023/06/13 06:51:01;;;;;;;9.43;3.40;;;22.30;59.50;;;;;;4973234;28;20058;-71
2023/06/13 06:53:28;;;;;;;10.95;3.58;;;22.60;60.20;;;;;;4890392;28;225986;-70
2023/06/13 06:55:55;;;;;;;9.25;3.30;;;22.90;61.30;;;;;;4968780;28;20051;-70
2023/06/13 06:58:21;;;;;;;9.10;3.15;;;23.20;60.60;;;;;;4911714;28;214364;-70
2023/06/13 07:00:47;;;;;;;8.75;3.33;;;23.20;59.90;;;;;;4981930;28;20173;-71
2023/06/13 07:03:13;;;;;;;9.73;3.08;;;23.30;59.70;;;;;;4929653;28;235844;-71
2023/06/13 07:05:40;;;;;;;9.63;3.20;;;23.40;58.30;;;;;;4977374;28;20058;-71
2023/06/13 07:08:07;;;;;;;10.00;3.10;;;23.40;58.90;;;;;;4958155;28;213454;-70
2023/06/13 07:10:33;;;;;;;11.95;3.30;;;23.70;59.90;;;;;;4961824;28;139704;-70
2023/06/13 07:12:59;;;;;;;10.93;3.30;;;24.10;60.30;;;;;;4983028;28;20042;-70
2023/06/13 07:15:25;;;;;;;11.82;3.38;;;24.60;60.00;;;;;;4927997;28;213645;-71
2023/06/13 07:17:52;;;;;;;10.65;3.20;;;25.00;60.50;;;;;;4966702;28;20058;-70
2023/06/13 07:20:21;;;;;;;11.35;3.45;;;25.20;59.50;;;;;;4922172;28;210993;-71
2023/06/13 07:22:47;;;;;;;10.32;3.50;;;25.50;59.30;;;;;;4960465;28;20078;-71
2023/06/13 07:25:13;;;;;;;8.13;3.15;;;25.70;58.70;;;;;;4924904;28;215053;-71
2023/06/13 07:27:39;;;;;;;10.75;3.10;;;26.20;57.70;;;;;;4964929;28;20186;-71
2023/06/13 07:30:06;;;;;;;8.35;2.95;;;26.30;57.70;;;;;;4922660;28;206469;-70
2023/06/13 07:32:32;;;;;;;9.95;3.20;;;25.80;56.90;;;;;;4962010;28;20256;-70
2023/06/13 07:34:58;;;;;;;13.55;3.03;;;25.60;57.30;;;;;;4916739;28;207159;-70
2023/06/13 07:37:24;;;;;;;8.98;3.20;;;25.80;57.20;;;;;;4956993;28;20054;-70
2023/06/13 07:39:50;;;;;;;10.10;3.05;;;26.00;57.90;;;;;;4922803;28;212339;-70
2023/06/13 07:42:17;;;;;;;8.85;2.80;;;26.30;58.20;;;;;;4965202;28;20061;-70
2023/06/13 07:44:43;;;;;;;11.23;2.75;;;26.40;57.90;;;;;;4928238;28;211168;-70
2023/06/13 07:47:10;;;;;;;11.90;2.85;;;26.70;57.20;;;;;;4968194;28;20050;-69
2023/06/13 07:49:36;;;;;;;8.13;2.90;;;26.70;56.10;;;;;;4925790;28;216117;-70
2023/06/13 07:52:02;;;;;;;10.93;2.88;;;26.70;56.30;;;;;;4972311;28;20084;-70
2023/06/13 07:54:30;;;;;;;11.30;2.63;;;26.90;55.30;;;;;;4899636;28;210667;-70
2023/06/13 07:56:57;;;;;;;10.73;3.20;;;27.10;54.70;;;;;;4969323;28;20508;-70
2023/06/13 07:59:24;;;;;;;10.10;3.33;;;27.10;55.10;;;;;;4916867;28;220065;-70
2023/06/13 08:01:50;;;;;;;8.10;2.75;;;27.30;55.50;;;;;;4963987;28;20066;-70
2023/06/13 08:04:16;;;;;;;7.47;2.50;;;27.60;55.40;;;;;;4915729;28;210398;-71
2023/06/13 08:06:43;;;;;;;14.85;3.25;;;27.40;54.50;;;;;;4978043;28;20059;-70
2023/06/13 08:09:11;;;;;;;10.27;2.83;;;27.50;53.70;;;;;;4917810;28;231112;-70
2023/06/13 08:11:38;;;;;;;8.75;2.50;;;27.60;54.10;;;;;;4970193;28;20057;-69
2023/06/13 08:14:07;;;;;;;8.43;2.78;;;27.60;53.60;;;;;;4919142;28;212467;-70
2023/06/13 08:16:36;;;;;;;7.82;2.72;;;28.00;53.40;;;;;;4964283;28;20058;-70
2023/06/13 08:19:03;;;;;;;11.93;2.70;;;28.20;52.60;;;;;;4915500;28;233255;-70
2023/06/13 08:21:30;;;;;;;7.90;2.67;;;28.10;52.80;;;;;;4968970;28;20062;-70
2023/06/13 08:23:59;;;;;;;8.55;2.50;;;28.40;53.20;;;;;;4912371;28;243057;-71
2023/06/13 08:26:26;;;;;;;8.23;2.78;;;29.00;52.20;;;;;;4989124;28;20054;-70
2023/06/13 08:28:53;;;;;;;10.80;3.03;;;28.90;51.10;;;;;;4921576;28;212060;-71
2023/06/13 08:31:23;;;;;;;7.60;2.60;;;29.20;51.40;;;;;;4970455;28;20515;-72
2023/06/13 08:33:50;;;;;;;;;;;29.20;49.50;;;;;;4922674;28;218314;-71
2023/06/13 08:36:16;;;;;;;8.93;2.65;;;29.30;50.10;;;;;;4975898;28;19925;-72
2023/06/13 08:38:42;;;;;;;9.63;2.72;;;29.60;49.50;;;;;;4914660;28;210345;-71
2023/06/13 08:41:10;;;;;;;10.18;2.70;;;29.80;49.40;;;;;;4980275;28;20055;-70
2023/06/13 08:43:38;;;;;;;9.18;2.88;;;29.80;49.20;;;;;;4912004;28;215196;-71
2023/06/13 08:46:04;;;;;;;9.75;2.50;;;30.20;50.30;;;;;;4991320;28;20047;-71
2023/06/13 08:48:32;;;;;;;7.80;2.78;;;30.70;49.50;;;;;;4903112;28;219113;-71
2023/06/13 08:51:00;;;;;;;11.30;2.65;;;30.40;47.90;;;;;;4983043;28;20059;-72
2023/06/13 08:53:29;;;;;;;8.65;2.70;;;30.70;49.10;;;;;;4891450;28;218298;-71
2023/06/13 08:55:58;;;;;;;7.65;2.55;;;30.90;47.60;;;;;;4966777;28;20062;-70
2023/06/13 08:58:27;;;;;;;9.52;2.50;;;31.00;48.30;;;;;;4903782;28;212568;-71
2023/06/13 09:00:57;;;;;;;9.68;2.78;;;31.00;48.10;;;;;;4974512;28;20054;-71
2023/06/13 09:03:25;;;;;;;7.28;2.40;;;31.50;48.50;;;;;;4909833;28;213179;-71
2023/06/13 09:05:51;;;;;;;9.45;2.60;;;31.90;47.90;;;;;;4983033;28;20058;-71
2023/06/13 09:08:18;;;;;;;8.15;2.50;;;32.30;48.40;;;;;;4911399;28;286094;-70
2023/06/13 09:10:45;;;;;;;9.75;2.70;;;32.60;47.30;;;;;;4996132;28;20485;-71
2023/06/13 09:13:12;;;;;;;12.75;2.90;;;32.20;46.20;;;;;;4944148;28;213688;-70
2023/06/13 09:15:42;;;;;;;8.98;2.40;;;31.50;46.60;;;;;;5005046;28;20062;-70
2023/06/13 09:18:10;;;;;;;8.40;2.65;;;31.70;46.60;;;;;;4988102;28;143836;-71
2023/06/13 09:20:39;;;;;;;7.38;2.50;;;31.90;46.70;;;;;;4923041;28;20051;-71
2023/06/13 09:23:06;;;;;;;8.57;2.85;;;32.40;47.20;;;;;;4964337;28;20046;-71
2023/06/13 09:25:36;;;;;;;7.85;2.63;;;32.40;46.60;;;;;;4948497;28;175068;-71
2023/06/13 09:28:32;;;;;;;9.52;2.70;;;32.50;46.30;;;;;;4964783;28;20065;-71
2023/06/13 09:30:58;;;;;;;9.32;2.60;;;32.20;44.90;;;;;;4892915;28;206286;-69
2023/06/13 09:33:25;;;;;;;6.97;2.60;;;32.30;46.00;;;;;;4910622;28;211248;-70
2023/06/13 09:35:52;;;;;;;6.90;2.58;;;31.90;45.50;;;;;;4969205;28;20074;-70
2023/06/13 09:38:26;;;;;;;10.20;3.00;;;32.20;45.60;;;;;;4905325;28;216641;-70
2023/06/13 09:40:55;;;;;;;8.18;2.70;;;31.90;45.00;;;;;;4988741;28;20059;-69
2023/06/13 09:43:24;;;;;;;8.82;2.55;;;32.60;46.00;;;;;;4908143;28;210117;-70
2023/06/13 09:45:51;;;;;;;9.15;2.60;;;32.70;44.90;;;;;;4980346;28;20050;-69
2023/06/13 09:48:19;;;;;;;9.00;2.60;;;32.90;44.60;;;;;;4911002;28;215604;-69
2023/06/13 09:50:45;;;;;;;7.05;2.50;;;32.60;44.50;;;;;;4989355;28;20237;-71
2023/06/13 09:53:11;;;;;;;9.60;2.80;;;32.70;45.60;;;;;;4923526;28;215627;-71
2023/06/13 09:55:38;;;;;;;7.28;2.50;;;32.70;45.30;;;;;;4921391;28;145919;-70
2023/06/13 09:58:04;;;;;;;8.60;2.50;;;32.60;44.30;;;;;;4961351;28;20050;-70
2023/06/13 10:00:30;;;;;;;8.38;2.85;;;32.70;45.30;;;;;;4937089;28;260406;-70
2023/06/13 10:02:57;;;;;;;7.28;2.58;;;33.20;44.90;;;;;;4984213;28;20501;-71
2023/06/13 10:05:23;;;;;;;8.32;2.67;;;33.50;44.90;;;;;;4918529;28;210619;-71
2023/06/13 10:07:50;;;;;;;7.28;2.65;;;33.10;45.60;;;;;;4965156;28;20070;-68
2023/06/13 10:10:16;;;;;;;8.95;2.78;;;33.40;44.80;;;;;;4934410;28;211269;-70
2023/06/13 10:12:58;;;;;;;8.55;2.70;;;33.80;45.90;;;;;;4956780;28;20063;-71
2023/06/13 10:15:32;;;;;;;11.77;2.80;;;34.30;45.00;;;;;;4904604;28;245633;-71
2023/06/13 10:18:05;;;;;;;9.65;3.00;;;33.20;44.60;;;;;;4962655;28;20065;-69
2023/06/13 10:20:32;;;;;;;11.00;2.67;;;33.60;45.10;;;;;;4930088;28;92086;-70
2023/06/13 10:22:59;;;;;;;7.50;2.70;;;33.50;43.30;;;;;;4985497;28;20574;-71
2023/06/13 10:25:30;;;;;;;10.40;2.85;;;32.90;43.90;;;;;;4930328;28;205294;-70
2023/06/13 10:28:05;;;;;;;9.27;2.50;;;33.00;44.40;;;;;;4967093;28;20555;-72
2023/06/13 10:30:53;;;;;;;8.93;2.92;;;33.30;44.70;;;;;;4952697;28;192680;-70
2023/06/13 10:33:52;;;;;;;9.13;2.70;;;33.80;44.80;;;;;;4927512;28;214028;-70
2023/06/13 10:36:23;;;;;;;8.85;2.85;;;33.90;44.60;;;;;;4993932;28;20050;-70
2023/06/13 10:39:11;;;;;;;11.38;3.00;;;34.00;44.30;;;;;;4932868;28;210903;-70
2023/06/13 10:42:27;;;;;;;8.32;2.90;;;34.20;45.40;;;;;;4989478;28;20073;-70
2023/06/13 10:45:23;;;;;;;10.25;3.08;;;34.40;44.20;;;;;;4961216;28;205460;-70
2023/06/13 10:47:50;;;;;;;10.73;2.70;;;34.40;44.30;;;;;;4967191;28;20748;-70
2023/06/13 10:50:17;;;;;;;9.23;2.85;;;33.90;44.20;;;;;;4943696;28;211392;-71
2023/06/13 10:52:46;;;;;;;9.77;2.80;;;33.40;44.50;;;;;;4962550;28;20054;-71
2023/06/13 10:55:25;;;;;;;10.43;3.07;;;33.40;44.90;;;;;;4917732;28;213975;-69
2023/06/13 10:58:01;;;;;;;10.10;2.70;;;33.30;45.00;;;;;;4985263;28;20061;-71
2023/06/13 11:00:31;;;;;;;9.82;2.58;;;33.30;45.40;;;;;;4920833;28;213414;-71
2023/06/13 11:02:58;;;;;;;;;;;33.20;46.20;;;;;;4968964;28;20081;-70
2023/06/13 11:05:24;;;;;;;7.65;2.50;;;33.70;46.10;;;;;;4929208;28;210205;-68
2023/06/13 11:07:54;;;;;;;8.63;2.50;;;33.70;45.20;;;;;;4964003;28;20063;-69
2023/06/13 11:10:22;;;;;;;7.35;2.35;;;32.90;45.00;;;;;;4925410;28;231296;-69
2023/06/13 11:12:49;;;;;;;9.35;2.50;;;33.20;46.10;;;;;;4966521;28;20062;-70
2023/06/13 11:15:26;;;;;;;8.65;2.50;;;33.40;46.00;;;;;;4916027;28;210495;-70
2023/06/13 11:18:04;;;;;;;10.27;2.70;;;33.80;46.00;;;;;;4968924;28;20770;-70
2023/06/13 11:20:31;;;;;;;9.52;2.60;;;34.00;44.70;;;;;;4910996;28;261650;-69
2023/06/13 11:22:57;;;;;;;8.82;2.50;;;33.90;45.20;;;;;;4963853;28;20058;-71
2023/06/13 11:25:24;;;;;;;7.70;2.50;;;33.50;45.40;;;;;;4938469;28;209442;-70
2023/06/13 11:27:50;;;;;;;7.18;2.50;;;33.60;44.70;;;;;;4981300;28;20076;-70
2023/06/13 11:30:17;;;;;;;8.88;2.60;;;33.40;44.50;;;;;;4949700;28;209754;-70
2023/06/13 11:32:44;;;;;;;7.93;2.33;;;33.60;44.60;;;;;;4980598;28;20050;-71
2023/06/13 11:35:12;;;;;;;8.15;2.60;;;33.20;44.40;;;;;;4919292;28;215863;-70
2023/06/13 11:37:44;;;;;;;10.40;2.80;;;32.90;44.30;;;;;;4966217;28;20492;-70
2023/06/13 11:40:26;;;;;;;9.20;2.88;;;33.00;44.10;;;;;;4925666;28;210540;-70
2023/06/13 11:42:53;;;;;;;9.93;3.00;;;32.80;44.60;;;;;;4964095;28;20121;-70
2023/06/13 11:45:22;;;;;;;11.30;2.63;;;32.40;44.50;;;;;;4921221;28;212031;-70
2023/06/13 11:47:57;;;;;;;8.02;2.40;;;32.20;44.00;;;;;;4965860;28;20051;-70
2023/06/13 11:50:27;;;;;;;9.95;2.55;;;32.60;45.80;;;;;;4922656;28;209663;-70
2023/06/13 11:53:11;;;;;;;7.90;2.47;;;32.70;44.90;;;;;;4962436;28;20098;-71
2023/06/13 11:55:37;;;;;;;8.90;3.00;;;33.40;44.70;;;;;;4913204;28;20058;-71
2023/06/13 11:58:03;;;;;;;8.93;2.58;;;33.30;44.20;;;;;;4959631;28;20887;-70
2023/06/13 12:00:47;;;;;;;9.40;2.70;;;33.10;44.50;;;;;;4939021;28;212250;-70
2023/06/13 12:03:13;;;;;;;7.68;2.53;;;33.40;44.40;;;;;;4930074;28;212849;-69
2023/06/13 12:05:40;;;;;;;8.25;2.58;;;33.50;45.60;;;;;;4996800;28;20058;-70
2023/06/13 12:08:06;;;;;;;7.22;2.33;;;33.90;45.00;;;;;;4977205;28;212505;-70
2023/06/13 12:10:32;;;;;;;8.85;2.75;;;33.10;45.40;;;;;;4955344;28;85041;-70
2023/06/13 12:12:58;;;;;;;7.82;2.40;;;33.10;45.70;;;;;;4966269;28;20507;-70
2023/06/13 12:15:26;;;;;;;9.48;2.70;;;33.60;46.00;;;;;;4925912;28;208294;-70
2023/06/13 12:18:00;;;;;;;7.78;2.47;;;34.00;45.30;;;;;;4981591;28;20054;-71
2023/06/13 12:20:27;;;;;;;9.98;2.53;;;33.90;45.40;;;;;;4934420;28;210672;-71
2023/06/13 12:23:01;;;;;;;9.60;2.70;;;33.90;46.10;;;;;;4964510;28;20074;-71
2023/06/13 12:25:30;;;;;;;9.77;2.35;;;33.20;44.10;;;;;;4945217;28;219387;-70
2023/06/13 12:28:01;;;;;;;9.55;2.58;;;33.40;46.00;;;;;;4983196;28;20058;-70
2023/06/13 12:30:31;;;;;;;8.60;2.70;;;33.50;45.40;;;;;;4945564;28;209816;-70
2023/06/13 12:32:57;;;;;;;7.70;2.55;;;33.60;45.10;;;;;;4979019;28;20062;-70
2023/06/13 12:35:24;;;;;;;9.93;2.72;;;33.90;45.60;;;;;;4956593;28;211248;-71
2023/06/13 12:38:00;;;;;;;12.00;2.65;;;33.60;45.80;;;;;;4984072;28;20507;-71
2023/06/13 12:40:33;;;;;;;7.82;2.40;;;33.00;44.80;;;;;;4931910;28;212237;-70
2023/06/13 12:43:02;;;;;;;9.10;2.70;;;32.80;45.50;;;;;;4961573;28;20055;-70